createdAt,value
2018-09-27T00:00:20.081Z,11.90
2018-09-27T00:02:48.672Z,10.37
2018-09-27T00:05:17.145Z,11.20
2018-09-27T00:07:45.664Z,7.53
2018-09-27T00:10:14.151Z,12.60
2018-09-27T00:12:42.829Z,7.37
2018-09-27T00:15:11.296Z,8.33
2018-09-27T00:17:39.795Z,12.33
2018-09-27T00:20:08.312Z,12.83
2018-09-27T00:22:36.820Z,14.97
2018-09-27T00:25:05.739Z,9.53
2018-09-27T00:27:34.224Z,15.23
2018-09-27T00:30:02.760Z,8.40
2018-09-27T00:32:31.256Z,10.47
2018-09-27T00:34:59.806Z,7.93
2018-09-27T00:37:28.273Z,12.13
2018-09-27T00:39:57.136Z,13.73
2018-09-27T00:42:25.696Z,11.50
2018-09-27T00:44:54.172Z,14.30
2018-09-27T00:47:23.064Z,11.33
2018-09-27T00:49:51.533Z,6.43
2018-09-27T00:52:19.998Z,8.80
2018-09-27T00:54:48.449Z,10.40
2018-09-27T00:57:16.787Z,7.50
2018-09-27T00:59:45.279Z,11.40
2018-09-27T01:02:13.636Z,12.50
2018-09-27T01:04:42.453Z,7.27
2018-09-27T01:07:10.973Z,7.10
2018-09-27T01:09:39.396Z,9.03
2018-09-27T01:12:07.770Z,8.10
2018-09-27T01:14:36.176Z,7.13
2018-09-27T01:17:04.536Z,8.10
2018-09-27T01:19:33.078Z,10.23
2018-09-27T01:22:01.468Z,14.63
2018-09-27T01:24:29.848Z,10.43
2018-09-27T01:26:58.568Z,10.97
2018-09-27T01:29:27.008Z,10.47
2018-09-27T01:31:55.358Z,11.07
2018-09-27T01:34:23.949Z,8.00
2018-09-27T01:36:52.290Z,13.53
2018-09-27T01:39:20.682Z,8.17
2018-09-27T01:41:49.306Z,16.00
2018-09-27T01:44:17.645Z,15.77
2018-09-27T01:46:46.305Z,11.50
2018-09-27T01:49:14.747Z,10.93
2018-09-27T01:51:43.129Z,9.43
2018-09-27T01:54:11.498Z,8.30
2018-09-27T01:56:39.849Z,6.63
2018-09-27T01:59:08.372Z,11.17
2018-09-27T02:01:36.851Z,10.00
2018-09-27T02:04:05.172Z,7.40
2018-09-27T02:06:33.681Z,10.50
2018-09-27T02:09:02.190Z,9.30
2018-09-27T02:11:30.653Z,10.40
2018-09-27T02:13:58.996Z,13.07
2018-09-27T02:16:27.356Z,12.23
2018-09-27T02:18:56.040Z,10.40
2018-09-27T02:21:24.547Z,12.03
2018-09-27T02:23:52.916Z,21.03
2018-09-27T02:26:21.284Z,13.63
2018-09-27T02:28:49.724Z,13.10
2018-09-27T02:31:18.091Z,9.63
2018-09-27T02:33:46.457Z,13.27
2018-09-27T02:36:14.920Z,11.90
2018-09-27T02:38:43.289Z,15.97
2018-09-27T02:41:11.681Z,8.77
2018-09-27T02:43:40.177Z,10.20
2018-09-27T02:46:08.640Z,17.40
2018-09-27T02:48:37.001Z,24.10
2018-09-27T02:51:05.565Z,23.77
2018-09-27T02:53:34.047Z,26.40
2018-09-27T02:56:02.722Z,14.23
2018-09-27T02:58:31.412Z,12.23
2018-09-27T03:00:59.829Z,14.10
2018-09-27T03:03:28.238Z,13.47
2018-09-27T03:05:56.633Z,11.20
2018-09-27T03:08:25.173Z,11.60
2018-09-27T03:10:54.015Z,6.40
2018-09-27T03:13:22.502Z,14.33
2018-09-27T03:15:51.337Z,13.43
2018-09-27T03:18:19.746Z,13.03
2018-09-27T03:20:48.161Z,19.30
2018-09-27T03:23:16.501Z,13.90
2018-09-27T03:25:44.870Z,19.97
2018-09-27T03:28:13.208Z,12.33
2018-09-27T03:30:41.672Z,17.93
2018-09-27T03:33:10.036Z,11.77
2018-09-27T03:35:38.412Z,12.03
2018-09-27T03:38:07.002Z,11.87
2018-09-27T03:40:35.387Z,15.80
2018-09-27T03:43:03.725Z,15.03
2018-09-27T03:45:32.128Z,11.53
2018-09-27T03:48:00.484Z,10.23
2018-09-27T03:50:28.978Z,10.63
2018-09-27T03:52:57.358Z,11.53
2018-09-27T03:55:25.780Z,12.40
2018-09-27T03:57:54.135Z,11.70
2018-09-27T04:00:22.548Z,11.60
2018-09-27T04:02:51.012Z,10.83
2018-09-27T04:05:19.535Z,12.23
2018-09-27T04:10:22.076Z,15.13
2018-09-27T04:12:50.425Z,12.13
2018-09-27T04:15:18.881Z,16.60
2018-09-27T04:17:47.433Z,8.00
2018-09-27T04:20:15.816Z,10.50
2018-09-27T04:22:44.149Z,9.73
2018-09-27T04:25:12.514Z,12.77
2018-09-27T04:27:41.057Z,15.17
2018-09-27T04:30:09.517Z,15.37
2018-09-27T04:32:37.887Z,11.10
2018-09-27T04:35:06.293Z,6.90
2018-09-27T04:37:34.645Z,9.33
2018-09-27T04:40:03.085Z,9.17
2018-09-27T04:42:31.630Z,9.53
2018-09-27T04:44:59.989Z,11.93
2018-09-27T04:47:28.410Z,14.50
2018-09-27T04:49:56.949Z,9.97
2018-09-27T04:52:25.432Z,15.13
2018-09-27T04:54:53.857Z,10.30
2018-09-27T04:57:22.342Z,14.83
2018-09-27T04:59:50.798Z,8.77
2018-09-27T05:02:19.285Z,7.20
2018-09-27T05:04:47.629Z,7.37
2018-09-27T05:07:16.025Z,13.27
2018-09-27T05:09:44.631Z,11.90
2018-09-27T05:12:12.865Z,9.93
2018-09-27T05:14:41.225Z,11.23
2018-09-27T05:17:09.692Z,8.97
2018-09-27T05:19:38.077Z,9.80
2018-09-27T05:22:06.628Z,10.40
2018-09-27T05:24:34.958Z,9.87
2018-09-27T05:27:03.350Z,11.57
2018-09-27T05:29:31.961Z,13.87
2018-09-27T05:32:00.320Z,9.73
2018-09-27T05:34:28.776Z,13.77
2018-09-27T05:36:57.330Z,13.43
2018-09-27T05:39:25.790Z,12.80
2018-09-27T05:41:54.245Z,12.47
2018-09-27T05:44:22.612Z,14.57
2018-09-27T05:46:51.220Z,13.33
2018-09-27T05:49:19.657Z,12.77
2018-09-27T05:51:48.148Z,12.20
2018-09-27T05:54:16.552Z,10.90
2018-09-27T05:56:45.165Z,8.40
2018-09-27T05:59:13.615Z,13.97
2018-09-27T06:01:42.066Z,11.20
2018-09-27T06:04:10.608Z,7.97
2018-09-27T06:06:39.132Z,8.73
2018-09-27T06:09:10.069Z,10.33
2018-09-27T06:11:38.489Z,13.70
2018-09-27T06:14:07.482Z,9.47
2018-09-27T06:16:37.313Z,13.77
2018-09-27T06:19:05.957Z,12.03
2018-09-27T06:21:34.564Z,10.43
2018-09-27T06:24:02.889Z,10.40
2018-09-27T06:26:31.259Z,12.13
2018-09-27T06:28:59.649Z,10.93
2018-09-27T06:31:28.003Z,8.43
2018-09-27T06:33:56.351Z,12.33
2018-09-27T06:36:24.819Z,12.90
2018-09-27T06:38:53.520Z,7.27
2018-09-27T06:41:22.242Z,9.30
2018-09-27T06:43:50.577Z,10.13
2018-09-27T06:46:18.946Z,11.27
2018-09-27T06:48:47.491Z,11.73
2018-09-27T06:51:15.780Z,18.60
2018-09-27T06:53:44.256Z,9.77
2018-09-27T06:56:12.695Z,20.77
2018-09-27T06:58:41.148Z,14.90
2018-09-27T07:01:09.952Z,11.57
2018-09-27T07:03:38.492Z,11.60
2018-09-27T07:06:07.148Z,10.57
2018-09-27T07:08:35.704Z,12.07
2018-09-27T07:11:04.014Z,14.90
2018-09-27T07:13:32.556Z,13.87
2018-09-27T07:16:00.930Z,19.17
2018-09-27T07:18:29.292Z,12.90
2018-09-27T07:20:57.891Z,14.40
2018-09-27T07:23:26.370Z,13.50
2018-09-27T07:25:54.912Z,11.60
2018-09-27T07:28:23.329Z,11.83
2018-09-27T07:30:51.668Z,13.20
2018-09-27T07:33:20.147Z,20.47
2018-09-27T07:35:48.484Z,15.80
2018-09-27T07:38:16.832Z,15.17
2018-09-27T07:40:45.385Z,19.87
2018-09-27T07:43:13.746Z,17.20
2018-09-27T07:45:42.178Z,11.47
2018-09-27T07:48:10.967Z,15.93
2018-09-27T07:50:39.524Z,10.00
2018-09-27T07:53:07.995Z,9.87
2018-09-27T07:55:36.404Z,21.73
2018-09-27T07:58:04.981Z,12.67
2018-09-27T08:00:33.488Z,15.83
2018-09-27T08:03:01.957Z,10.90
2018-09-27T08:05:37.028Z,10.17
2018-09-27T08:08:05.824Z,16.20
2018-09-27T08:10:34.336Z,13.30
2018-09-27T08:13:02.833Z,9.80
2018-09-27T08:15:31.252Z,12.83
2018-09-27T08:17:59.726Z,13.83
2018-09-27T08:20:28.194Z,14.77
2018-09-27T08:22:56.528Z,12.77
2018-09-27T08:25:25.016Z,12.53
2018-09-27T08:27:53.366Z,13.77
2018-09-27T08:30:22.007Z,11.70
2018-09-27T08:32:50.421Z,13.63
2018-09-27T08:35:18.860Z,12.37
2018-09-27T08:37:47.257Z,12.83
2018-09-27T08:40:15.805Z,13.67
2018-09-27T08:42:44.183Z,12.00
2018-09-27T08:45:12.914Z,16.47
2018-09-27T08:47:41.013Z,15.10
2018-09-27T08:50:09.444Z,15.00
2018-09-27T08:52:37.825Z,14.60
2018-09-27T08:55:06.596Z,14.83
2018-09-27T08:57:35.047Z,12.80
2018-09-27T09:00:03.417Z,15.17
2018-09-27T09:02:31.928Z,17.60
2018-09-27T09:05:00.519Z,10.53
2018-09-27T09:07:28.955Z,13.60
2018-09-27T09:09:57.311Z,11.30
2018-09-27T09:12:25.743Z,12.10
2018-09-27T09:14:54.337Z,22.33
2018-09-27T09:17:22.756Z,15.93
2018-09-27T09:19:51.133Z,10.40
2018-09-27T09:22:20.525Z,13.60
2018-09-27T09:24:48.921Z,16.20
2018-09-27T09:27:17.629Z,13.60
2018-09-27T09:29:46.019Z,11.47
2018-09-27T09:32:14.396Z,12.33
2018-09-27T09:34:42.805Z,13.37
2018-09-27T09:37:11.184Z,13.57
2018-09-27T09:39:39.579Z,17.27
2018-09-27T09:42:08.237Z,14.43
2018-09-27T09:44:36.688Z,10.90
2018-09-27T09:47:05.145Z,20.20
2018-09-27T09:49:33.772Z,20.53
2018-09-27T09:52:02.168Z,15.80
2018-09-27T09:54:30.541Z,12.13
2018-09-27T09:56:58.985Z,12.93
2018-09-27T09:59:27.352Z,14.30
2018-09-27T10:01:55.765Z,12.87
2018-09-27T10:04:24.140Z,16.90
2018-09-27T10:06:52.677Z,13.70
2018-09-27T10:09:21.138Z,13.43
2018-09-27T10:11:49.562Z,17.30
2018-09-27T10:14:17.952Z,12.47
2018-09-27T10:16:46.349Z,11.87
2018-09-27T10:19:15.094Z,14.00
2018-09-27T10:21:43.747Z,26.93
2018-09-27T10:24:12.045Z,17.87
2018-09-27T10:26:40.675Z,14.13
2018-09-27T10:29:09.238Z,20.40
2018-09-27T10:31:37.744Z,13.87
2018-09-27T10:34:06.151Z,11.93
2018-09-27T10:36:34.621Z,12.20
2018-09-27T10:39:03.638Z,15.80
2018-09-27T10:41:32.276Z,17.30
2018-09-27T10:44:00.659Z,14.37
2018-09-27T10:46:29.054Z,17.50
2018-09-27T10:48:57.457Z,12.73
2018-09-27T10:51:25.909Z,15.77
2018-09-27T10:53:54.272Z,22.80
2018-09-27T10:56:22.697Z,15.93
2018-09-27T10:58:51.380Z,14.00
2018-09-27T11:01:19.833Z,15.63
2018-09-27T11:03:48.400Z,13.97
2018-09-27T11:06:16.961Z,22.90
2018-09-27T11:08:45.553Z,16.33
2018-09-27T11:11:14.046Z,16.33
2018-09-27T11:13:42.425Z,14.63
2018-09-27T11:16:11.109Z,15.37
2018-09-27T11:18:39.536Z,15.90
2018-09-27T11:21:07.940Z,21.97
2018-09-27T11:23:36.348Z,16.23
2018-09-27T11:26:04.889Z,15.67
2018-09-27T11:28:38.820Z,17.13
2018-09-27T11:31:12.636Z,15.80
2018-09-27T11:33:41.059Z,18.43
2018-09-27T11:36:09.828Z,14.43
2018-09-27T11:38:38.242Z,15.57
2018-09-27T11:41:07.003Z,21.83
2018-09-27T11:43:35.390Z,18.13
2018-09-27T11:46:03.871Z,17.00
2018-09-27T11:48:32.464Z,15.33
2018-09-27T11:51:00.877Z,23.00
2018-09-27T11:53:29.303Z,18.60
2018-09-27T11:55:57.879Z,14.30
2018-09-27T11:58:26.305Z,15.77
2018-09-27T12:00:54.762Z,15.00
2018-09-27T12:03:23.177Z,14.80
2018-09-27T12:05:51.609Z,14.53
2018-09-27T12:08:20.069Z,11.47
2018-09-27T12:10:49.248Z,12.43
2018-09-27T12:13:17.698Z,12.87
2018-09-27T12:15:46.294Z,10.30
2018-09-27T12:18:14.694Z,11.33
2018-09-27T12:20:43.250Z,17.23
2018-09-27T12:23:11.713Z,14.13
2018-09-27T12:25:40.069Z,9.90
2018-09-27T12:28:08.496Z,13.63
2018-09-27T12:30:36.918Z,13.50
2018-09-27T12:33:05.376Z,10.40
2018-09-27T12:35:33.919Z,11.87
2018-09-27T12:38:02.606Z,14.17
2018-09-27T12:40:31.346Z,11.10
2018-09-27T12:42:59.772Z,14.43
2018-09-27T12:45:28.188Z,12.07
2018-09-27T12:47:56.599Z,10.30
2018-09-27T12:50:25.008Z,9.07
2018-09-27T12:52:53.569Z,13.40
2018-09-27T12:55:21.968Z,12.40
2018-09-27T12:57:50.404Z,14.60
2018-09-27T13:00:19.058Z,10.53
2018-09-27T13:02:47.660Z,8.60
2018-09-27T13:05:15.944Z,12.80
2018-09-27T13:07:44.353Z,8.60
2018-09-27T13:10:12.821Z,9.10
2018-09-27T13:12:41.515Z,11.20
2018-09-27T13:15:09.958Z,11.93
2018-09-27T13:17:38.334Z,9.50
2018-09-27T13:20:06.967Z,8.27
2018-09-27T13:22:35.458Z,16.93
2018-09-27T13:25:04.051Z,10.10
2018-09-27T13:27:32.633Z,9.63
2018-09-27T13:30:01.235Z,8.30
2018-09-27T13:32:29.528Z,11.37
2018-09-27T13:34:58.025Z,9.90
2018-09-27T13:37:26.401Z,9.37
2018-09-27T13:39:54.888Z,14.77
2018-09-27T13:42:23.308Z,12.30
2018-09-27T13:44:51.730Z,13.47
2018-09-27T13:47:20.222Z,8.17
2018-09-27T13:49:49.085Z,10.50
2018-09-27T13:52:17.695Z,8.70
2018-09-27T13:54:46.130Z,13.67
2018-09-27T13:57:14.641Z,11.83
2018-09-27T13:59:43.000Z,13.10
2018-09-27T14:02:11.396Z,8.77
2018-09-27T14:04:39.822Z,10.17
2018-09-27T14:07:08.293Z,13.93
2018-09-27T14:09:36.776Z,13.23
2018-09-27T14:12:05.210Z,11.27
2018-09-27T14:14:33.862Z,11.93
2018-09-27T14:17:02.556Z,13.67
2018-09-27T14:19:30.861Z,11.00
2018-09-27T14:21:59.337Z,10.50
2018-09-27T14:24:28.025Z,14.97
2018-09-27T14:26:56.536Z,10.87
2018-09-27T14:29:24.959Z,16.00
2018-09-27T14:31:53.844Z,13.73
2018-09-27T14:34:22.266Z,17.60
2018-09-27T14:36:50.721Z,11.87
2018-09-27T14:39:19.242Z,12.90
2018-09-27T14:41:47.752Z,13.20
2018-09-27T14:44:16.163Z,6.47
2018-09-27T14:46:44.557Z,8.77
2018-09-27T14:49:13.057Z,6.97
2018-09-27T14:51:41.544Z,10.73
2018-09-27T14:54:10.004Z,5.67
2018-09-27T14:56:38.456Z,8.67
2018-09-27T14:59:06.844Z,8.97
2018-09-27T15:01:35.608Z,8.80
2018-09-27T15:04:04.100Z,7.30
2018-09-27T15:06:32.640Z,9.23
2018-09-27T15:09:01.152Z,4.80
2018-09-27T15:11:29.854Z,9.77
2018-09-27T15:13:58.316Z,9.73
2018-09-27T15:16:26.797Z,6.97
2018-09-27T15:18:55.248Z,6.80
2018-09-27T15:21:23.701Z,7.70
2018-09-27T15:23:52.114Z,10.40
2018-09-27T15:26:20.534Z,9.80
2018-09-27T15:28:48.960Z,7.07
2018-09-27T15:31:17.430Z,11.57
2018-09-27T15:33:45.896Z,4.37
2018-09-27T15:36:14.298Z,5.93
2018-09-27T15:38:42.823Z,6.60
2018-09-27T15:41:11.265Z,5.73
2018-09-27T15:43:39.972Z,9.63
2018-09-27T15:46:08.590Z,10.03
2018-09-27T15:48:37.000Z,5.20
2018-09-27T15:51:05.571Z,11.83
2018-09-27T15:53:34.024Z,7.43
2018-09-27T15:56:02.519Z,7.07
2018-09-27T15:58:31.236Z,10.00
2018-09-27T16:00:59.808Z,5.50
2018-09-27T16:03:28.234Z,6.13
2018-09-27T16:05:56.755Z,8.17
2018-09-27T16:08:25.250Z,6.70
2018-09-27T16:10:53.731Z,10.43
2018-09-27T16:13:22.216Z,9.57
2018-09-27T16:15:50.618Z,6.77
2018-09-27T16:18:19.016Z,12.20
2018-09-27T16:20:47.608Z,7.30
2018-09-27T16:23:16.177Z,12.50
2018-09-27T16:25:44.906Z,10.43
2018-09-27T16:28:13.386Z,7.73
2018-09-27T16:30:41.814Z,8.23
2018-09-27T16:33:10.336Z,7.87
2018-09-27T16:35:38.835Z,12.10
2018-09-27T16:38:07.316Z,7.67
2018-09-27T16:40:35.813Z,7.47
2018-09-27T16:43:04.249Z,11.60
2018-09-27T16:45:32.651Z,9.67
2018-09-27T16:48:01.070Z,10.20
2018-09-27T16:50:29.516Z,9.47
2018-09-27T16:52:57.948Z,13.17
2018-09-27T16:55:26.441Z,11.50
2018-09-27T16:57:54.922Z,14.57
2018-09-27T17:00:23.394Z,10.00
2018-09-27T17:02:51.782Z,8.80
2018-09-27T17:05:20.290Z,8.27
2018-09-27T17:07:48.712Z,8.40
2018-09-27T17:10:17.201Z,9.80
2018-09-27T17:12:46.078Z,8.83
2018-09-27T17:15:14.527Z,8.40
2018-09-27T17:17:43.078Z,12.30
2018-09-27T17:20:11.609Z,7.30
2018-09-27T17:22:40.308Z,12.40
2018-09-27T17:25:08.945Z,13.73
2018-09-27T17:27:37.517Z,13.93
2018-09-27T17:30:06.327Z,7.43
2018-09-27T17:32:35.029Z,12.57
2018-09-27T17:35:03.465Z,14.37
2018-09-27T17:37:31.926Z,7.67
2018-09-27T17:40:00.612Z,12.83
2018-09-27T17:42:29.009Z,5.90
2018-09-27T17:44:57.633Z,12.33
2018-09-27T17:47:26.077Z,6.17
2018-09-27T17:49:54.596Z,9.47
2018-09-27T17:52:23.036Z,11.03
2018-09-27T17:54:51.501Z,6.57
2018-09-27T17:57:22.916Z,6.27
2018-09-27T17:59:53.581Z,11.13
2018-09-27T18:02:23.137Z,5.07
2018-09-27T18:04:51.720Z,6.70
2018-09-27T18:07:20.638Z,6.63
2018-09-27T18:09:49.214Z,7.33
2018-09-27T18:12:17.634Z,11.33
2018-09-27T18:14:46.045Z,5.17
2018-09-27T18:17:14.604Z,10.13
2018-09-27T18:19:43.398Z,13.87
2018-09-27T18:22:11.782Z,12.73
2018-09-27T18:24:40.198Z,10.20
2018-09-27T18:27:08.636Z,11.10
2018-09-27T18:29:37.244Z,15.80
2018-09-27T18:32:05.690Z,9.33
2018-09-27T18:34:34.229Z,7.77
2018-09-27T18:37:02.758Z,11.57
2018-09-27T18:39:32.177Z,11.50
2018-09-27T18:42:00.713Z,10.50
2018-09-27T18:44:29.205Z,6.50
2018-09-27T18:46:57.729Z,12.47
2018-09-27T18:49:26.196Z,7.50
2018-09-27T18:51:57.638Z,15.27
2018-09-27T18:54:26.285Z,12.90
2018-09-27T18:56:54.709Z,11.83
2018-09-27T18:59:23.157Z,13.83
2018-09-27T19:01:51.601Z,14.07
2018-09-27T19:04:20.131Z,15.70
2018-09-27T19:06:48.609Z,15.23
2018-09-27T19:09:17.053Z,12.77
2018-09-27T19:11:45.574Z,15.60
2018-09-27T19:14:14.053Z,10.07
2018-09-27T19:16:42.743Z,11.77
2018-09-27T19:19:11.132Z,13.47
2018-09-27T19:21:39.824Z,8.73
2018-09-27T19:24:08.437Z,9.90
2018-09-27T19:26:37.093Z,12.10
2018-09-27T19:29:05.629Z,13.73
2018-09-27T19:31:34.068Z,10.60
2018-09-27T19:34:02.759Z,19.23
2018-09-27T19:36:31.204Z,17.43
2018-09-27T19:38:59.905Z,13.40
2018-09-27T19:41:29.004Z,17.97
2018-09-27T19:43:57.492Z,12.70
2018-09-27T19:46:25.912Z,13.00
2018-09-27T19:48:54.341Z,13.87
2018-09-27T19:51:24.301Z,13.97
2018-09-27T19:53:53.156Z,14.33
2018-09-27T19:56:21.831Z,15.13
2018-09-27T19:58:50.284Z,11.00
2018-09-27T20:01:18.953Z,15.73
2018-09-27T20:03:47.572Z,12.13
2018-09-27T20:06:16.057Z,11.13
2018-09-27T20:08:44.484Z,14.30
2018-09-27T20:11:13.150Z,9.70
2018-09-27T20:13:41.598Z,9.70
2018-09-27T20:16:10.056Z,17.30
2018-09-27T20:18:38.466Z,14.80
2018-09-27T20:21:07.065Z,12.37
2018-09-27T20:23:35.650Z,11.63
2018-09-27T20:26:04.163Z,18.50
2018-09-27T20:28:32.934Z,17.13
2018-09-27T20:31:01.617Z,18.87
2018-09-27T20:33:30.026Z,16.27
2018-09-27T20:35:58.448Z,17.90
2018-09-27T20:38:27.010Z,13.47
2018-09-27T20:40:55.399Z,20.70
2018-09-27T20:43:24.140Z,13.97
2018-09-27T20:45:53.089Z,16.47
2018-09-27T20:48:21.848Z,17.73
2018-09-27T20:50:50.722Z,19.33
2018-09-27T20:53:19.140Z,16.23
2018-09-27T20:55:47.543Z,15.40
2018-09-27T20:58:16.006Z,16.53
2018-09-27T21:00:44.453Z,19.63
2018-09-27T21:03:12.896Z,24.37
2018-09-27T21:05:41.227Z,17.77
2018-09-27T21:08:09.625Z,18.10
2018-09-27T21:10:38.065Z,20.33
2018-09-27T21:13:06.487Z,24.70
2018-09-27T21:15:34.926Z,16.30
2018-09-27T21:18:03.310Z,22.70
2018-09-27T21:20:31.696Z,16.77
2018-09-27T21:23:00.109Z,24.50
2018-09-27T21:25:28.511Z,23.43
2018-09-27T21:27:56.905Z,21.43
2018-09-27T21:30:25.273Z,29.23
2018-09-27T21:32:53.668Z,20.70
2018-09-27T21:35:22.069Z,19.40
2018-09-27T21:37:50.552Z,16.67
2018-09-27T21:40:18.998Z,26.73
2018-09-27T21:42:47.394Z,20.30
2018-09-27T21:45:15.788Z,15.73
2018-09-27T21:47:44.153Z,21.10
2018-09-27T21:50:12.873Z,21.53
2018-09-27T21:52:41.113Z,18.60
2018-09-27T21:55:09.488Z,18.67
2018-09-27T21:57:37.884Z,19.00
2018-09-27T22:00:06.763Z,25.57
2018-09-27T22:02:35.228Z,26.40
2018-09-27T22:05:03.631Z,28.00
2018-09-27T22:07:32.018Z,25.13
2018-09-27T22:10:00.521Z,30.47
2018-09-27T22:12:28.944Z,26.63
2018-09-27T22:14:57.346Z,27.37
2018-09-27T22:17:25.729Z,22.50
2018-09-27T22:19:54.165Z,17.83
2018-09-27T22:22:22.546Z,24.30
2018-09-27T22:24:50.970Z,29.93
2018-09-27T22:27:19.350Z,27.17
2018-09-27T22:29:47.836Z,26.87
2018-09-27T22:32:16.249Z,26.53
2018-09-27T22:34:44.647Z,26.63
2018-09-27T22:37:13.016Z,36.30
2018-09-27T22:39:41.412Z,27.37
2018-09-27T22:42:10.285Z,36.17
2018-09-27T22:44:38.748Z,35.90
2018-09-27T22:47:07.504Z,25.53
2018-09-27T22:49:36.148Z,29.23
2018-09-27T22:52:04.533Z,27.83
2018-09-27T22:54:33.027Z,20.47
2018-09-27T22:57:01.437Z,28.40
2018-09-27T22:59:29.824Z,22.37
2018-09-27T23:01:58.206Z,22.63
2018-09-27T23:04:26.600Z,23.17
2018-09-27T23:06:54.999Z,30.40
2018-09-27T23:09:23.373Z,26.57
2018-09-27T23:11:51.896Z,25.40
2018-09-27T23:14:20.388Z,25.27
2018-09-27T23:16:48.761Z,28.70
2018-09-27T23:19:17.152Z,24.90
2018-09-27T23:21:45.640Z,26.97
2018-09-27T23:24:14.172Z,26.27
2018-09-27T23:26:42.559Z,29.90
2018-09-27T23:29:10.956Z,26.60
2018-09-27T23:31:39.460Z,28.67
2018-09-27T23:34:08.078Z,31.03
2018-09-27T23:36:36.456Z,34.67
2018-09-27T23:39:06.564Z,31.40
2018-09-27T23:41:34.924Z,30.40
2018-09-27T23:44:03.377Z,34.00
2018-09-27T23:46:31.757Z,39.40
2018-09-27T23:49:00.156Z,38.90
2018-09-27T23:51:28.788Z,33.50
2018-09-27T23:53:57.246Z,38.90
2018-09-27T23:56:25.743Z,32.33
2018-09-27T23:58:54.148Z,26.07
